Time,TemperatureF,DewpointF,PressureIn,WindDirection,WindDirectionDegrees,WindSpeedMPH,WindSpeedGustMPH,Humidity,HourlyPrecipIn,Conditions,Clouds,dailyrainin,SoftwareType,DateUTC
2013-01-01 00:00:00,30.9,29.9,30.11,WSW,243,0.0,1.2,96,0.00,,CLR,0.00,VWS V14.01,2013-01-01 05:00:00,
2013-01-01 00:04:00,31.0,30.0,30.13,SW,215,0.0,1.2,96,0.00,,,0.00,VWS V14.01,2013-01-01 05:04:00,
2013-01-01 00:09:00,31.0,30.0,30.12,SW,215,0.0,1.2,96,0.00,,,0.00,VWS V14.01,2013-01-01 05:09:00,
2013-01-01 00:14:00,31.0,30.0,30.11,WSW,240,0.0,0.0,96,0.00,,,0.00,VWS V14.01,2013-01-01 05:14:00,
2013-01-01 00:15:00,30.9,29.9,30.11,SW,225,0.0,1.2,96,0.00,,CLR,0.00,VWS V14.01,2013-01-01 05:15:00,
2013-01-01 00:19:00,31.0,30.0,30.11,WSW,241,0.0,0.0,96,0.00,,,0.00,VWS V14.01,2013-01-01 05:19:00,
2013-01-01 00:24:00,31.0,30.0,30.11,WSW,240,0.0,0.0,96,0.00,,,0.00,VWS V14.01,2013-01-01 05:24:00,
2013-01-01 00:29:00,31.0,30.0,30.11,WSW,240,0.0,0.0,96,0.00,,,0.00,VWS V14.01,2013-01-01 05:29:00,
2013-01-01 00:30:00,30.9,29.9,30.11,SW,231,0.0,0.0,96,0.00,,CLR,0.00,VWS V14.01,2013-01-01 05:30:00,
2013-01-01 00:34:00,30.9,29.9,30.11,WSW,240,0.0,0.0,96,0.00,,,0.00,VWS V14.01,2013-01-01 05:34:00,
2013-01-01 00:39:00,30.9,29.9,30.11,SSW,207,0.0,0.0,96,0.00,,,0.00,VWS V14.01,2013-01-01 05:39:00,
2013-01-01 00:44:00,30.9,29.9,30.11,SW,222,0.0,1.2,96,0.00,,,0.00,VWS V14.01,2013-01-01 05:44:00,
2013-01-01 00:45:00,30.8,29.8,30.10,West,273,0.0,0.0,96,0.00,,CLR,0.00,VWS V14.01,2013-01-01 05:45:00,
2013-01-01 00:49:00,30.9,29.9,30.11,WSW,243,0.0,1.2,96,0.00,,,0.00,VWS V14.01,2013-01-01 05:49:00,
2013-01-01 00:54:00,30.9,29.9,30.11,WSW,243,0.0,1.2,96,0.00,,,0.00,VWS V14.01,2013-01-01 05:54:00,
2013-01-01 00:59:00,30.9,29.9,30.12,SSW,197,0.0,1.2,96,0.00,,,0.00,VWS V14.01,2013-01-01 05:59:00,
2013-01-01 01:00:00,30.8,29.8,30.10,SW,236,0.0,2.5,96,0.00,,CLR,0.00,VWS V14.01,2013-01-01 06:00:00,
2013-01-01 01:04:00,30.9,29.9,30.11,SW,236,0.0,1.2,96,0.00,,,0.00,VWS V14.01,2013-01-01 06:04:00,
2013-01-01 01:09:00,30.9,29.9,30.11,SW,225,0.0,1.2,96,0.00,,,0.00,VWS V14.01,2013-01-01 06:09:00,
2013-01-01 01:14:00,30.9,29.9,30.11,WSW,238,0.0,0.0,96,0.00,,,0.00,VWS V14.01,2013-01-01 06:14:00,
2013-01-01 01:15:00,30.8,29.8,30.11,WSW,239,0.0,1.2,96,0.00,,CLR,0.00,VWS V14.01,2013-01-01 06:15:00,
2013-01-01 01:19:00,30.9,29.9,30.11,SW,217,0.0,0.0,96,0.00,,,0.00,VWS V14.01,2013-01-01 06:19:00,
2013-01-01 01:24:00,30.9,29.9,30.11,SW,231,0.0,0.0,96,0.00,,,0.00,VWS V14.01,2013-01-01 06:24:00,
2013-01-01 01:29:00,30.9,29.9,30.11,SSW,210,0.0,0.0,96,0.00,,,0.00,VWS V14.01,2013-01-01 06:29:00,
2013-01-01 01:30:00,30.8,29.8,30.11,WSW,255,0.0,2.5,96,0.00,,CLR,0.00,VWS V14.01,2013-01-01 06:30:00,
2013-01-01 01:34:00,30.9,29.9,30.11,West,271,0.0,0.0,96,0.00,,,0.00,VWS V14.01,2013-01-01 06:34:00,
2013-01-01 01:39:00,30.8,29.8,30.10,West,274,0.0,0.0,96,0.00,,,0.00,VWS V14.01,2013-01-01 06:39:00,
2013-01-01 01:44:00,30.9,29.9,30.10,West,270,0.0,0.0,96,0.00,,,0.00,VWS V14.01,2013-01-01 06:44:00,
2013-01-01 01:45:00,30.8,29.8,30.11,WSW,248,2.5,3.8,96,0.00,,CLR,0.00,VWS V14.01,2013-01-01 06:45:00,
2013-01-01 01:49:00,30.8,29.8,30.10,WSW,246,0.0,1.2,96,0.00,,,0.00,VWS V14.01,2013-01-01 06:49:00,
2013-01-01 01:54:00,30.8,29.8,30.10,SSW,212,0.0,2.5,96,0.00,,,0.00,VWS V14.01,2013-01-01 06:54:00,
2013-01-01 01:59:00,30.8,29.8,30.10,WSW,257,0.0,1.2,96,0.00,,,0.00,VWS V14.01,2013-01-01 06:59:00,
2013-01-01 02:00:00,30.7,29.7,30.11,WSW,254,0.0,2.5,96,0.00,,CLR,0.00,VWS V14.01,2013-01-01 07:00:00,
2013-01-01 02:04:00,30.8,29.8,30.10,WSW,256,0.0,1.2,96,0.00,,,0.00,VWS V14.01,2013-01-01 07:04:00,
2013-01-01 02:09:00,30.8,29.8,30.11,WSW,239,0.0,1.2,96,0.00,,,0.00,VWS V14.01,2013-01-01 07:09:00,
2013-01-01 02:14:00,30.8,29.8,30.10,WSW,257,1.2,1.2,96,0.00,,,0.00,VWS V14.01,2013-01-01 07:14:00,
2013-01-01 02:15:00,30.7,29.7,30.11,SW,225,0.0,2.5,96,0.00,,CLR,0.00,VWS V14.01,2013-01-01 07:15:00,
2013-01-01 02:19:00,30.8,29.8,30.11,West,269,0.0,2.5,96,0.00,,,0.00,VWS V14.01,2013-01-01 07:19:00,
2013-01-01 02:24:00,30.8,29.8,30.11,WSW,255,0.0,2.5,96,0.00,,,0.00,VWS V14.01,2013-01-01 07:24:00,
2013-01-01 02:29:00,30.8,29.8,30.11,WSW,257,0.0,0.0,96,0.00,,,0.00,VWS V14.01,2013-01-01 07:29:00,
2013-01-01 02:30:00,30.7,29.7,30.11,WSW,255,0.0,2.5,96,0.00,,CLR,0.00,VWS V14.01,2013-01-01 07:30:00,
2013-01-01 02:34:00,30.8,29.8,30.11,West,280,1.2,3.8,96,0.00,,,0.00,VWS V14.01,2013-01-01 07:34:00,
2013-01-01 02:39:00,30.8,29.8,30.11,West,280,1.2,3.8,96,0.00,,,0.00,VWS V14.01,2013-01-01 07:39:00,
2013-01-01 02:44:00,30.8,29.8,30.10,WSW,257,0.0,2.5,96,0.00,,,0.00,VWS V14.01,2013-01-01 07:44:00,
2013-01-01 02:45:00,30.6,29.6,30.12,WSW,256,1.2,2.5,96,0.00,,CLR,0.00,VWS V14.01,2013-01-01 07:45:00,
2013-01-01 02:49:00,30.7,29.7,30.11,West,259,1.2,2.5,96,0.00,,,0.00,VWS V14.01,2013-01-01 07:49:00,
2013-01-01 02:54:00,30.7,29.7,30.11,WSW,256,0.0,2.5,96,0.00,,,0.00,VWS V14.01,2013-01-01 07:54:00,
2013-01-01 02:59:00,30.7,29.7,30.11,WSW,250,1.2,2.5,96,0.00,,,0.00,VWS V14.01,2013-01-01 07:59:00,
2013-01-01 03:00:00,30.6,29.6,30.11,WSW,248,0.0,2.5,96,0.00,,CLR,0.00,VWS V14.01,2013-01-01 08:00:00,
2013-01-01 03:04:00,30.7,29.7,30.11,West,273,0.0,2.5,96,0.00,,,0.00,VWS V14.01,2013-01-01 08:04:00,
2013-01-01 03:09:00,30.7,29.7,30.11,West,273,0.0,2.5,96,0.00,,,0.00,VWS V14.01,2013-01-01 08:09:00,
2013-01-01 03:14:00,30.7,29.7,30.11,WNW,293,0.0,2.5,96,0.00,,,0.00,VWS V14.01,2013-01-01 08:14:00,
2013-01-01 03:15:00,30.6,29.9,30.11,WSW,257,0.0,2.5,97,0.00,,CLR,0.00,VWS V14.01,2013-01-01 08:15:00,
2013-01-01 03:19:00,30.7,29.7,30.11,WNW,292,0.0,2.5,96,0.00,,,0.00,VWS V14.01,2013-01-01 08:19:00,
2013-01-01 03:24:00,30.7,29.7,30.11,WSW,255,0.0,2.5,96,0.00,,,0.00,VWS V14.01,2013-01-01 08:24:00,
2013-01-01 03:29:00,30.7,29.7,30.11,WSW,256,0.0,1.2,96,0.00,,,0.00,VWS V14.01,2013-01-01 08:29:00,
2013-01-01 03:30:00,30.6,29.9,30.12,West,264,0.0,1.2,97,0.00,,CLR,0.00,VWS V14.01,2013-01-01 08:30:00,
2013-01-01 03:34:00,30.6,29.6,30.11,SW,229,0.0,2.5,96,0.00,,,0.00,VWS V14.01,2013-01-01 08:34:00,
2013-01-01 03:39:00,30.6,29.6,30.12,WSW,257,0.0,2.5,96,0.00,,,0.00,VWS V14.01,2013-01-01 08:39:00,
2013-01-01 03:44:00,30.7,29.7,30.11,West,264,0.0,1.2,96,0.00,,,0.00,VWS V14.01,2013-01-01 08:44:00,
2013-01-01 03:45:00,30.6,29.9,30.13,West,267,0.0,1.2,97,0.00,,CLR,0.00,VWS V14.01,2013-01-01 08:45:00,
2013-01-01 03:49:00,30.6,29.6,30.11,WNW,288,0.0,2.5,96,0.00,,,0.00,VWS V14.01,2013-01-01 08:49:00,
2013-01-01 03:54:00,30.6,29.6,30.11,WSW,248,0.0,2.5,96,0.00,,,0.00,VWS V14.01,2013-01-01 08:54:00,
2013-01-01 03:59:00,30.6,29.6,30.11,WSW,248,0.0,0.0,96,0.00,,,0.00,VWS V14.01,2013-01-01 08:59:00,
2013-01-01 04:00:00,30.5,29.8,30.11,West,270,0.0,1.2,97,0.00,,CLR,0.00,VWS V14.01,2013-01-01 09:00:00,
2013-01-01 04:04:00,30.6,29.6,30.11,WSW,249,0.0,2.5,96,0.00,,,0.00,VWS V14.01,2013-01-01 09:04:00,
2013-01-01 04:09:00,30.6,29.9,30.11,WSW,250,0.0,2.5,97,0.00,,,0.00,VWS V14.01,2013-01-01 09:09:00,
2013-01-01 04:14:00,30.6,29.9,30.12,WSW,257,0.0,0.0,97,0.00,,,0.00,VWS V14.01,2013-01-01 09:14:00,
2013-01-01 04:15:00,30.5,29.8,30.11,West,281,0.0,2.5,97,0.00,,CLR,0.00,VWS V14.01,2013-01-01 09:15:00,
2013-01-01 04:19:00,30.6,29.9,30.12,West,264,0.0,1.2,97,0.00,,,0.00,VWS V14.01,2013-01-01 09:19:00,
2013-01-01 04:24:00,30.6,29.9,30.12,West,264,0.0,1.2,97,0.00,,,0.00,VWS V14.01,2013-01-01 09:24:00,
2013-01-01 04:29:00,30.6,29.9,30.12,West,278,0.0,1.2,97,0.00,,,0.00,VWS V14.01,2013-01-01 09:29:00,
2013-01-01 04:30:00,30.2,29.2,30.11,North,351,0.0,1.2,96,0.00,,CLR,0.00,VWS V14.01,2013-01-01 09:30:00,
2013-01-01 04:34:00,30.6,29.9,30.12,WSW,257,0.0,1.2,97,0.00,,,0.00,VWS V14.01,2013-01-01 09:34:00,
2013-01-01 04:39:00,30.5,29.8,30.13,West,271,0.0,1.2,97,0.00,,,0.00,VWS V14.01,2013-01-01 09:39:00,
2013-01-01 04:44:00,30.6,29.9,30.12,West,266,0.0,1.2,97,0.00,,,0.00,VWS V14.01,2013-01-01 09:44:00,
2013-01-01 04:45:00,29.8,28.8,30.13,WSW,252,2.5,3.8,96,0.00,,CLR,0.00,VWS V14.01,2013-01-01 09:45:00,
2013-01-01 04:49:00,30.6,29.9,30.12,West,270,0.0,1.2,97,0.00,,,0.00,VWS V14.01,2013-01-01 09:49:00,
2013-01-01 04:54:00,30.5,29.8,30.11,West,271,0.0,1.2,97,0.00,,,0.00,VWS V14.01,2013-01-01 09:54:00,
2013-01-01 04:59:00,30.5,29.8,30.12,West,271,0.0,0.0,97,0.00,,,0.00,VWS V14.01,2013-01-01 09:59:00,
2013-01-01 05:00:00,29.5,28.5,30.12,NE,37,0.0,2.5,96,0.00,,CLR,0.00,VWS V14.01,2013-01-01 10:00:00,
2013-01-01 05:04:00,30.5,29.8,30.11,West,281,0.0,2.5,97,0.00,,,0.00,VWS V14.01,2013-01-01 10:04:00,
2013-01-01 05:09:00,30.5,29.8,30.11,West,281,0.0,2.5,97,0.00,,,0.00,VWS V14.01,2013-01-01 10:09:00,
2013-01-01 05:14:00,30.5,29.8,30.11,NW,321,0.0,0.0,97,0.00,,,0.00,VWS V14.01,2013-01-01 10:14:00,
2013-01-01 05:15:00,29.4,28.4,30.13,NW,311,0.0,1.2,96,0.00,,CLR,0.00,VWS V14.01,2013-01-01 10:15:00,
2013-01-01 05:19:00,30.4,29.6,30.11,North,8,0.0,1.2,97,0.00,,,0.00,VWS V14.01,2013-01-01 10:19:00,
2013-01-01 05:24:00,30.2,29.2,30.11,NW,304,0.0,1.2,96,0.00,,,0.00,VWS V14.01,2013-01-01 10:24:00,
2013-01-01 05:29:00,30.0,29.0,30.12,SW,221,0.0,1.2,96,0.00,,,0.00,VWS V14.01,2013-01-01 10:29:00,
2013-01-01 05:30:00,29.3,28.3,30.13,NNW,347,0.0,0.0,96,0.00,,CLR,0.00,VWS V14.01,2013-01-01 10:30:00,
2013-01-01 05:34:00,29.9,28.9,30.12,West,267,0.0,1.2,96,0.00,,,0.00,VWS V14.01,2013-01-01 10:34:00,
2013-01-01 05:39:00,29.8,28.8,30.13,NW,316,0.0,1.2,96,0.00,,,0.00,VWS V14.01,2013-01-01 10:39:00,
2013-01-01 05:44:00,29.7,28.7,30.13,North,356,0.0,2.5,96,0.00,,,0.00,VWS V14.01,2013-01-01 10:44:00,
2013-01-01 05:45:00,29.3,28.3,30.14,West,271,0.0,1.2,96,0.00,,CLR,0.00,VWS V14.01,2013-01-01 10:45:00,
2013-01-01 05:49:00,29.6,28.6,30.13,NNE,18,0.0,2.5,96,0.00,,,0.00,VWS V14.01,2013-01-01 10:49:00,
2013-01-01 05:55:00,29.5,28.5,30.12,NE,38,0.0,2.5,96,0.00,,,0.00,VWS V14.01,2013-01-01 10:55:00,
2013-01-01 06:00:00,29.4,28.4,30.13,NW,309,0.0,1.2,96,0.00,,,0.00,VWS V14.01,2013-01-01 11:00:00,
2013-01-01 06:04:00,29.4,28.4,30.13,NW,308,0.0,1.2,96,0.00,,,0.00,VWS V14.01,2013-01-01 11:04:00,
2013-01-01 06:09:00,29.4,28.4,30.13,NW,312,0.0,1.2,96,0.00,,,0.00,VWS V14.01,2013-01-01 11:09:00,
2013-01-01 06:14:00,29.4,28.4,30.13,NNW,347,0.0,0.0,96,0.00,,,0.00,VWS V14.01,2013-01-01 11:14:00,
2013-01-01 06:15:00,29.2,28.2,30.15,West,277,0.0,1.2,96,0.00,,CLR,0.00,VWS V14.01,2013-01-01 11:15:00,
2013-01-01 06:19:00,29.4,28.4,30.14,NNW,347,0.0,0.0,96,0.00,,,0.00,VWS V14.01,2013-01-01 11:19:00,
2013-01-01 06:25:00,29.3,28.3,30.13,NNW,347,0.0,0.0,96,0.00,,,0.00,VWS V14.01,2013-01-01 11:25:00,
2013-01-01 06:30:00,29.3,28.3,30.13,NNE,14,0.0,0.0,96,0.00,,,0.00,VWS V14.01,2013-01-01 11:30:00,
2013-01-01 06:34:00,29.3,28.3,30.13,WSW,246,0.0,1.2,96,0.00,,OVC010,0.00,VWS V14.01,2013-01-01 11:34:00,
2013-01-01 06:39:00,29.3,28.3,30.14,West,271,0.0,1.2,96,0.00,,OVC010,0.00,VWS V14.01,2013-01-01 11:39:00,
2013-01-01 06:44:00,29.3,28.3,30.14,NW,307,0.0,1.2,96,0.00,,OVC010,0.00,VWS V14.01,2013-01-01 11:44:00,
2013-01-01 06:45:00,29.1,28.1,30.15,NNE,31,0.0,1.2,96,0.00,,CLR,0.00,VWS V14.01,2013-01-01 11:45:00,
2013-01-01 06:49:00,29.3,28.3,30.15,NW,306,0.0,1.2,96,0.00,,OVC010,0.00,VWS V14.01,2013-01-01 11:49:00,
2013-01-01 06:54:00,29.4,28.4,30.14,NW,307,0.0,1.2,96,0.00,,OVC010,0.00,VWS V14.01,2013-01-01 11:54:00,
2013-01-01 06:59:00,29.3,28.3,30.14,NW,306,0.0,0.0,96,0.00,,OVC010,0.00,VWS V14.01,2013-01-01 11:59:00,
2013-01-01 07:00:00,28.6,27.6,30.15,NNE,27,0.0,1.2,96,0.00,,CLR,0.00,VWS V14.01,2013-01-01 12:00:00,
2013-01-01 07:04:00,29.3,28.3,30.14,SW,236,0.0,1.2,96,0.00,,OVC010,0.00,VWS V14.01,2013-01-01 12:04:00,
2013-01-01 07:09:00,29.2,28.2,30.15,West,277,0.0,1.2,96,0.00,,OVC010,0.00,VWS V14.01,2013-01-01 12:09:00,
2013-01-01 07:14:00,29.2,28.2,30.15,West,281,0.0,0.0,96,0.00,,OVC010,0.00,VWS V14.01,2013-01-01 12:14:00,
2013-01-01 07:15:00,28.6,27.6,30.15,NNW,348,0.0,0.0,96,0.00,,CLR,0.00,VWS V14.01,2013-01-01 12:15:00,
2013-01-01 07:19:00,29.2,28.2,30.15,West,280,0.0,0.0,96,0.00,,OVC010,0.00,VWS V14.01,2013-01-01 12:19:00,
2013-01-01 07:24:00,29.2,28.2,30.15,West,280,0.0,0.0,96,0.00,,OVC010,0.00,VWS V14.01,2013-01-01 12:24:00,
2013-01-01 07:29:00,29.2,28.2,30.14,NNE,31,0.0,0.0,96,0.00,,OVC010,0.00,VWS V14.01,2013-01-01 12:29:00,
2013-01-01 07:30:00,28.1,27.1,30.14,NNW,346,0.0,0.0,96,0.00,,CLR,0.00,VWS V14.01,2013-01-01 12:30:00,
2013-01-01 07:35:00,29.2,28.2,30.15,NNE,31,0.0,0.0,96,0.00,,,0.00,VWS V14.01,2013-01-01 12:35:00,
2013-01-01 07:39:00,29.1,28.1,30.15,NNE,32,1.2,1.2,96,0.00,,,0.00,VWS V14.01,2013-01-01 12:39:00,
2013-01-01 07:44:00,28.9,27.9,30.16,NNE,32,0.0,0.0,96,0.00,,,0.00,VWS V14.01,2013-01-01 12:44:00,
2013-01-01 07:45:00,27.8,26.6,30.14,NNW,341,0.0,2.5,95,0.00,,CLR,0.00,VWS V14.01,2013-01-01 12:45:00,
2013-01-01 07:49:00,28.7,27.7,30.15,NNE,31,0.0,1.2,96,0.00,,,0.00,VWS V14.01,2013-01-01 12:49:00,
2013-01-01 07:54:00,28.6,27.6,30.15,NNE,27,0.0,1.2,96,0.00,,,0.00,VWS V14.01,2013-01-01 12:54:00,
2013-01-01 07:59:00,28.6,27.6,30.15,NNE,27,0.0,0.0,96,0.00,,,0.00,VWS V14.01,2013-01-01 12:59:00,
2013-01-01 08:00:00,27.5,26.3,30.13,North,356,0.0,1.2,95,0.00,,CLR,0.00,VWS V14.01,2013-01-01 13:00:00,
2013-01-01 08:04:00,28.6,27.6,30.15,NNE,25,0.0,0.0,96,0.00,,,0.00,VWS V14.01,2013-01-01 13:04:00,
2013-01-01 08:09:00,28.6,27.6,30.15,North,352,0.0,0.0,96,0.00,,,0.00,VWS V14.01,2013-01-01 13:09:00,
2013-01-01 08:14:00,28.3,27.3,30.15,NW,321,0.0,0.0,96,0.00,,,0.00,VWS V14.01,2013-01-01 13:14:00,
2013-01-01 08:15:00,27.3,25.8,30.14,NNW,335,0.0,1.2,94,0.00,,CLR,0.00,VWS V14.01,2013-01-01 13:15:00,
2013-01-01 08:19:00,28.2,27.2,30.16,NW,314,0.0,0.0,96,0.00,,,0.00,VWS V14.01,2013-01-01 13:19:00,
2013-01-01 08:24:00,28.1,27.1,30.14,NNW,346,0.0,0.0,96,0.00,,,0.00,VWS V14.01,2013-01-01 13:24:00,
2013-01-01 08:30:00,28.0,27.0,30.15,NNW,338,0.0,0.0,96,0.00,,,0.00,VWS V14.01,2013-01-01 13:30:00,
2013-01-01 08:35:00,27.9,26.7,30.14,North,6,0.0,2.5,95,0.00,,,0.00,VWS V14.01,2013-01-01 13:35:00,
2013-01-01 08:39:00,27.8,26.6,30.14,NNW,341,0.0,2.5,95,0.00,,,0.00,VWS V14.01,2013-01-01 13:39:00,
2013-01-01 08:44:00,27.7,26.5,30.14,North,1,0.0,1.2,95,0.00,,,0.00,VWS V14.01,2013-01-01 13:44:00,
2013-01-01 08:45:00,27.1,25.6,30.17,SE,124,1.2,1.2,94,0.00,,CLR,0.00,VWS V14.01,2013-01-01 13:45:00,
2013-01-01 08:49:00,27.7,26.5,30.14,NW,309,0.0,1.2,95,0.00,,,0.00,VWS V14.01,2013-01-01 13:49:00,
2013-01-01 08:54:00,27.5,26.3,30.13,NNW,339,1.2,1.2,95,0.00,,,0.00,VWS V14.01,2013-01-01 13:54:00,
2013-01-01 08:59:00,27.5,26.3,30.13,NW,318,0.0,1.2,95,0.00,,,0.00,VWS V14.01,2013-01-01 13:59:00,
2013-01-01 09:00:00,27.3,25.5,30.18,South,175,0.0,1.2,93,0.00,,CLR,0.00,VWS V14.01,2013-01-01 14:00:00,
2013-01-01 09:04:00,27.3,25.8,30.13,NNW,333,0.0,1.2,94,0.00,,,0.00,VWS V14.01,2013-01-01 14:04:00,
2013-01-01 09:09:00,27.4,25.9,30.14,NNW,335,0.0,1.2,94,0.00,,,0.00,VWS V14.01,2013-01-01 14:09:00,
2013-01-01 09:14:00,27.3,25.8,30.15,NW,326,1.2,1.2,94,0.00,,,0.00,VWS V14.01,2013-01-01 14:14:00,
2013-01-01 09:15:00,27.5,25.8,30.18,NW,323,0.0,1.2,93,0.00,,CLR,0.00,VWS V14.01,2013-01-01 14:15:00,
2013-01-01 09:19:00,27.2,25.7,30.16,NW,326,0.0,1.2,94,0.00,,,0.00,VWS V14.01,2013-01-01 14:19:00,
2013-01-01 09:24:00,27.1,25.6,30.16,NE,46,0.0,1.2,94,0.00,,,0.00,VWS V14.01,2013-01-01 14:24:00,
2013-01-01 09:29:00,27.1,25.6,30.16,NW,319,0.0,1.2,94,0.00,,,0.00,VWS V14.01,2013-01-01 14:29:00,
2013-01-01 09:30:00,27.5,25.8,30.18,NNW,335,0.0,1.2,93,0.00,,CLR,0.00,VWS V14.01,2013-01-01 14:30:00,
2013-01-01 09:34:00,27.1,25.6,30.16,West,280,1.2,1.2,94,0.00,,,0.00,VWS V14.01,2013-01-01 14:34:00,
2013-01-01 09:39:00,27.0,25.5,30.17,NW,315,0.0,1.2,94,0.00,,,0.00,VWS V14.01,2013-01-01 14:39:00,
2013-01-01 09:44:00,27.1,25.6,30.17,SE,124,0.0,1.2,94,0.00,,,0.00,VWS V14.01,2013-01-01 14:44:00,
2013-01-01 09:45:00,27.6,25.6,30.19,WSW,248,0.0,2.5,92,0.00,,CLR,0.00,VWS V14.01,2013-01-01 14:45:00,
2013-01-01 09:49:00,27.2,25.7,30.17,WNW,302,0.0,1.2,94,0.00,,,0.00,VWS V14.01,2013-01-01 14:49:00,
2013-01-01 09:54:00,27.2,25.5,30.18,ENE,75,0.0,1.2,93,0.00,,,0.00,VWS V14.01,2013-01-01 14:54:00,
2013-01-01 09:59:00,27.3,25.5,30.18,West,259,0.0,1.2,93,0.00,,,0.00,VWS V14.01,2013-01-01 14:59:00,
2013-01-01 10:00:00,27.3,25.3,30.19,NNW,329,0.0,3.8,92,0.00,,CLR,0.00,VWS V14.01,2013-01-01 15:00:00,
2013-01-01 10:04:00,27.4,25.6,30.18,NNE,20,0.0,1.2,93,0.00,,,0.00,VWS V14.01,2013-01-01 15:04:00,
2013-01-01 10:09:00,27.5,25.8,30.18,NW,323,0.0,1.2,93,0.00,,,0.00,VWS V14.01,2013-01-01 15:09:00,
2013-01-01 10:14:00,27.6,25.8,30.18,NNE,20,0.0,0.0,93,0.00,,,0.00,VWS V14.01,2013-01-01 15:14:00,
2013-01-01 10:15:00,27.3,25.3,30.19,North,4,0.0,2.5,92,0.00,,CLR,0.00,VWS V14.01,2013-01-01 15:15:00,
2013-01-01 10:19:00,27.6,25.8,30.18,NNW,333,0.0,1.2,93,0.00,,,0.00,VWS V14.01,2013-01-01 15:19:00,
2013-01-01 10:24:00,27.5,25.8,30.18,NNW,335,0.0,1.2,93,0.00,,,0.00,VWS V14.01,2013-01-01 15:24:00,
2013-01-01 10:29:00,27.5,25.5,30.18,NNE,22,1.2,2.5,92,0.00,,,0.00,VWS V14.01,2013-01-01 15:29:00,
2013-01-01 10:30:00,27.5,25.2,30.20,NE,34,0.0,2.5,91,0.00,,CLR,0.00,VWS V14.01,2013-01-01 15:30:00,
2013-01-01 10:34:00,27.6,25.6,30.19,NNW,345,1.2,2.5,92,0.00,,,0.00,VWS V14.01,2013-01-01 15:34:00,
2013-01-01 10:39:00,27.6,25.6,30.19,WSW,248,0.0,2.5,92,0.00,,,0.00,VWS V14.01,2013-01-01 15:39:00,
2013-01-01 10:44:00,27.7,25.7,30.19,NE,36,0.0,2.5,92,0.00,,,0.00,VWS V14.01,2013-01-01 15:44:00,
2013-01-01 10:45:00,27.9,25.1,30.20,ENE,67,0.0,1.2,89,0.00,,CLR,0.00,VWS V14.01,2013-01-01 15:45:00,
2013-01-01 10:49:00,27.5,25.5,30.19,WNW,302,1.2,2.5,92,0.00,,,0.00,VWS V14.01,2013-01-01 15:49:00,
2013-01-01 10:54:00,27.3,25.3,30.19,NNW,329,0.0,3.8,92,0.00,,,0.00,VWS V14.01,2013-01-01 15:54:00,
2013-01-01 10:59:00,27.3,25.3,30.19,NE,55,0.0,1.2,92,0.00,,,0.00,VWS V14.01,2013-01-01 15:59:00,
2013-01-01 11:00:00,28.1,25.3,30.18,North,1,0.0,2.5,89,0.00,,CLR,0.00,VWS V14.01,2013-01-01 16:00:00,
2013-01-01 11:04:00,27.3,25.3,30.18,NE,46,0.0,2.5,92,0.00,,,0.00,VWS V14.01,2013-01-01 16:04:00,
2013-01-01 11:09:00,27.3,25.0,30.19,North,4,0.0,2.5,91,0.00,,,0.00,VWS V14.01,2013-01-01 16:09:00,
2013-01-01 11:14:00,27.4,25.4,30.20,SE,141,1.2,1.2,92,0.00,,,0.00,VWS V14.01,2013-01-01 16:14:00,
2013-01-01 11:15:00,28.5,25.4,30.18,NNW,341,0.0,1.2,88,0.00,,CLR,0.00,VWS V14.01,2013-01-01 16:15:00,
2013-01-01 11:19:00,27.4,25.1,30.20,NNE,32,0.0,2.5,91,0.00,,,0.00,VWS V14.01,2013-01-01 16:19:00,
2013-01-01 11:24:00,27.5,25.2,30.20,NNE,32,0.0,2.5,91,0.00,,,0.00,VWS V14.01,2013-01-01 16:24:00,
2013-01-01 11:29:00,27.5,25.2,30.20,NE,46,0.0,1.2,91,0.00,,,0.00,VWS V14.01,2013-01-01 16:29:00,
2013-01-01 11:30:00,28.5,25.4,30.17,North,355,2.5,2.5,88,0.00,,CLR,0.00,VWS V14.01,2013-01-01 16:30:00,
2013-01-01 11:34:00,27.7,25.2,30.20,West,259,0.0,1.2,90,0.00,,,0.00,VWS V14.01,2013-01-01 16:34:00,
2013-01-01 11:39:00,27.9,25.1,30.20,ENE,66,0.0,1.2,89,0.00,,,0.00,VWS V14.01,2013-01-01 16:39:00,
2013-01-01 11:44:00,28.0,25.5,30.20,ENE,66,1.2,1.2,90,0.00,,,0.00,VWS V14.01,2013-01-01 16:44:00,
2013-01-01 11:45:00,28.5,25.4,30.15,NNW,342,0.0,2.5,88,0.00,,CLR,0.00,VWS V14.01,2013-01-01 16:45:00,
2013-01-01 11:49:00,28.1,25.3,30.19,ENE,66,0.0,1.2,89,0.00,,,0.00,VWS V14.01,2013-01-01 16:49:00,
2013-01-01 11:54:00,28.1,25.3,30.18,North,360,0.0,2.5,89,0.00,,,0.00,VWS V14.01,2013-01-01 16:54:00,
2013-01-01 11:59:00,28.2,25.4,30.18,NNE,23,0.0,1.2,89,0.00,,,0.00,VWS V14.01,2013-01-01 16:59:00,
2013-01-01 12:00:00,28.9,25.5,30.17,North,11,0.0,1.2,87,0.00,,CLR,0.00,VWS V14.01,2013-01-01 17:00:00,
2013-01-01 12:04:00,28.4,25.6,30.19,NNE,19,0.0,1.2,89,0.00,,,0.00,VWS V14.01,2013-01-01 17:04:00,
2013-01-01 12:09:00,28.5,25.4,30.18,NNW,342,0.0,1.2,88,0.00,,,0.00,VWS V14.01,2013-01-01 17:09:00,
2013-01-01 12:14:00,28.6,25.8,30.18,West,273,0.0,1.2,89,0.00,,,0.00,VWS V14.01,2013-01-01 17:14:00,
2013-01-01 12:15:00,29.1,25.7,30.16,NNW,345,0.0,2.5,87,0.00,,CLR,0.00,VWS V14.01,2013-01-01 17:15:00,
2013-01-01 12:19:00,28.7,25.9,30.17,NE,39,1.2,1.2,89,0.00,,,0.00,VWS V14.01,2013-01-01 17:19:00,
2013-01-01 12:24:00,28.6,25.5,30.17,North,4,1.2,2.5,88,0.00,,,0.00,VWS V14.01,2013-01-01 17:24:00,
2013-01-01 12:29:00,28.2,25.1,30.14,North,5,0.0,2.5,88,0.00,,,0.00,VWS V14.01,2013-01-01 17:29:00,
2013-01-01 12:30:00,28.8,25.4,30.15,NE,40,2.5,2.5,87,0.00,,CLR,0.00,VWS V14.01,2013-01-01 17:30:00,
2013-01-01 12:34:00,28.3,25.2,30.14,NNW,331,0.0,2.5,88,0.00,,,0.00,VWS V14.01,2013-01-01 17:34:00,
2013-01-01 12:39:00,28.5,25.4,30.15,North,351,0.0,2.5,88,0.00,,,0.00,VWS V14.01,2013-01-01 17:39:00,
2013-01-01 12:44:00,28.7,25.6,30.15,NNW,330,0.0,1.2,88,0.00,,,0.00,VWS V14.01,2013-01-01 17:44:00,
2013-01-01 12:45:00,28.7,25.3,30.17,WSW,257,0.0,2.5,87,0.00,,CLR,0.00,VWS V14.01,2013-01-01 17:45:00,
2013-01-01 12:49:00,28.9,25.8,30.17,WNW,287,0.0,1.2,88,0.00,,,0.00,VWS V14.01,2013-01-01 17:49:00,
2013-01-01 12:54:00,28.9,25.5,30.17,North,11,1.2,1.2,87,0.00,,,0.00,VWS V14.01,2013-01-01 17:54:00,
2013-01-01 12:59:00,28.9,25.5,30.16,NNE,18,0.0,2.5,87,0.00,,,0.00,VWS V14.01,2013-01-01 17:59:00,
2013-01-01 13:00:00,28.6,25.2,30.16,West,266,0.0,1.2,87,0.00,,CLR,0.00,VWS V14.01,2013-01-01 18:00:00,
2013-01-01 13:04:00,29.0,25.6,30.17,East,98,0.0,2.5,87,0.00,,,0.00,VWS V14.01,2013-01-01 18:04:00,
2013-01-01 13:09:00,29.1,25.7,30.16,NNW,345,1.2,2.5,87,0.00,,,0.00,VWS V14.01,2013-01-01 18:09:00,
2013-01-01 13:14:00,29.1,25.4,30.16,North,11,1.2,1.2,86,0.00,,,0.00,VWS V14.01,2013-01-01 18:14:00,
2013-01-01 13:15:00,28.8,25.1,30.17,NE,45,0.0,1.2,86,0.00,,CLR,0.00,VWS V14.01,2013-01-01 18:15:00,
2013-01-01 13:19:00,28.9,25.2,30.15,NNE,16,1.2,2.5,86,0.00,,,0.00,VWS V14.01,2013-01-01 18:19:00,
2013-01-01 13:24:00,28.8,25.4,30.15,NW,314,0.0,2.5,87,0.00,,,0.00,VWS V14.01,2013-01-01 18:24:00,
2013-01-01 13:29:00,28.7,25.3,30.17,North,4,0.0,2.5,87,0.00,,,0.00,VWS V14.01,2013-01-01 18:29:00,
2013-01-01 13:30:00,29.1,25.4,30.16,West,277,0.0,1.2,86,0.00,,CLR,0.00,VWS V14.01,2013-01-01 18:30:00,
2013-01-01 13:34:00,28.7,25.3,30.17,ENE,73,0.0,2.5,87,0.00,,,0.00,VWS V14.01,2013-01-01 18:34:00,
2013-01-01 13:39:00,28.7,25.3,30.17,WSW,255,0.0,2.5,87,0.00,,,0.00,VWS V14.01,2013-01-01 18:39:00,
2013-01-01 13:44:00,28.6,25.2,30.16,NW,323,1.2,1.2,87,0.00,,,0.00,VWS V14.01,2013-01-01 18:44:00,
2013-01-01 13:45:00,28.8,25.1,30.17,West,270,0.0,2.5,86,0.00,,CLR,0.00,VWS V14.01,2013-01-01 18:45:00,
2013-01-01 13:49:00,28.6,25.2,30.16,NW,323,1.2,1.2,87,0.00,,,0.00,VWS V14.01,2013-01-01 18:49:00,
2013-01-01 13:54:00,28.6,25.2,30.16,West,266,0.0,1.2,87,0.00,,,0.00,VWS V14.01,2013-01-01 18:54:00,
2013-01-01 13:59:00,28.6,25.2,30.17,West,266,0.0,1.2,87,0.00,,,0.00,VWS V14.01,2013-01-01 18:59:00,
2013-01-01 14:00:00,29.0,25.1,30.16,WNW,298,0.0,2.5,85,0.00,,CLR,0.00,VWS V14.01,2013-01-01 19:00:00,
2013-01-01 14:04:00,28.8,25.4,30.17,SSE,158,1.2,1.2,87,0.00,,,0.00,VWS V14.01,2013-01-01 19:04:00,
2013-01-01 14:09:00,28.8,25.4,30.17,NNE,28,1.2,1.2,87,0.00,,,0.00,VWS V14.01,2013-01-01 19:09:00,
2013-01-01 14:14:00,28.9,25.5,30.17,NNE,21,0.0,1.2,87,0.00,,,0.00,VWS V14.01,2013-01-01 19:14:00,
2013-01-01 14:15:00,28.9,24.7,30.16,NNE,32,0.0,2.5,84,0.00,,CLR,0.00,VWS V14.01,2013-01-01 19:15:00,
2013-01-01 14:19:00,29.2,25.5,30.17,North,1,0.0,1.2,86,0.00,,,0.00,VWS V14.01,2013-01-01 19:19:00,
2013-01-01 14:24:00,29.1,25.4,30.16,West,277,0.0,1.2,86,0.00,,,0.00,VWS V14.01,2013-01-01 19:24:00,
2013-01-01 14:29:00,28.9,25.0,30.17,West,272,0.0,2.5,85,0.00,,,0.00,VWS V14.01,2013-01-01 19:29:00,
2013-01-01 14:30:00,29.3,25.1,30.17,West,266,0.0,1.2,84,0.00,,CLR,0.00,VWS V14.01,2013-01-01 19:30:00,
2013-01-01 14:34:00,28.6,25.0,30.17,NW,317,0.0,2.5,86,0.00,,,0.00,VWS V14.01,2013-01-01 19:34:00,
2013-01-01 14:39:00,28.8,25.1,30.17,West,281,0.0,2.5,86,0.00,,,0.00,VWS V14.01,2013-01-01 19:39:00,
2013-01-01 14:44:00,28.9,25.0,30.16,SE,142,0.0,1.2,85,0.00,,,0.00,VWS V14.01,2013-01-01 19:44:00,
2013-01-01 14:45:00,29.1,25.2,30.15,North,9,0.0,2.5,85,0.00,,CLR,0.00,VWS V14.01,2013-01-01 19:45:00,
2013-01-01 14:49:00,28.9,25.0,30.16,NW,311,0.0,2.5,85,0.00,,,0.00,VWS V14.01,2013-01-01 19:49:00,
2013-01-01 14:54:00,29.0,25.1,30.16,WNW,298,0.0,2.5,85,0.00,,,0.00,VWS V14.01,2013-01-01 19:54:00,
2013-01-01 14:59:00,29.0,24.8,30.16,WNW,298,0.0,1.2,84,0.00,,,0.00,VWS V14.01,2013-01-01 19:59:00,
2013-01-01 15:00:00,28.6,24.7,30.15,West,275,0.0,2.5,85,0.00,,CLR,0.00,VWS V14.01,2013-01-01 20:00:00,
2013-01-01 15:04:00,29.0,24.8,30.16,WNW,298,0.0,1.2,84,0.00,,,0.00,VWS V14.01,2013-01-01 20:04:00,
2013-01-01 15:09:00,28.9,24.7,30.16,NNE,32,0.0,2.5,84,0.00,,,0.00,VWS V14.01,2013-01-01 20:09:00,
2013-01-01 15:14:00,29.1,25.2,30.16,WNW,295,0.0,0.0,85,0.00,,,0.00,VWS V14.01,2013-01-01 20:14:00,
2013-01-01 15:15:00,28.5,24.6,30.17,NNW,347,0.0,0.0,85,0.00,,CLR,0.00,VWS V14.01,2013-01-01 20:15:00,
2013-01-01 15:19:00,29.2,24.7,30.17,SW,228,0.0,1.2,83,0.00,,,0.00,VWS V14.01,2013-01-01 20:19:00,
2013-01-01 15:24:00,29.3,25.1,30.17,West,266,0.0,1.2,84,0.00,,,0.00,VWS V14.01,2013-01-01 20:24:00,
2013-01-01 15:29:00,29.2,25.0,30.15,North,11,0.0,1.2,84,0.00,,,0.00,VWS V14.01,2013-01-01 20:29:00,
2013-01-01 15:30:00,28.3,24.7,30.15,NW,316,0.0,1.2,86,0.00,,CLR,0.00,VWS V14.01,2013-01-01 20:30:00,
2013-01-01 15:34:00,29.1,24.9,30.17,West,270,0.0,2.5,84,0.00,,,0.00,VWS V14.01,2013-01-01 20:34:00,
2013-01-01 15:39:00,29.1,25.2,30.15,NW,311,0.0,2.5,85,0.00,,,0.00,VWS V14.01,2013-01-01 20:39:00,
2013-01-01 15:44:00,28.9,24.7,30.15,NW,323,0.0,2.5,84,0.00,,,0.00,VWS V14.01,2013-01-01 20:44:00,
2013-01-01 15:45:00,27.8,24.2,30.17,NNE,27,0.0,0.0,86,0.00,,CLR,0.00,VWS V14.01,2013-01-01 20:45:00,
2013-01-01 15:49:00,28.7,24.8,30.16,West,259,0.0,2.5,85,0.00,,,0.00,VWS V14.01,2013-01-01 20:49:00,
2013-01-01 15:54:00,28.7,25.0,30.16,West,269,0.0,2.5,86,0.00,,,0.00,VWS V14.01,2013-01-01 20:54:00,
2013-01-01 15:59:00,28.6,24.7,30.16,WSW,248,0.0,0.0,85,0.00,,,0.00,VWS V14.01,2013-01-01 20:59:00,
2013-01-01 16:00:00,27.6,24.2,30.17,West,271,0.0,0.0,87,0.00,,CLR,0.00,VWS V14.01,2013-01-01 21:00:00,
2013-01-01 16:04:00,28.6,25.0,30.16,West,277,0.0,0.0,86,0.00,,,0.00,VWS V14.01,2013-01-01 21:04:00,
2013-01-01 16:09:00,28.6,24.4,30.16,North,360,0.0,0.0,84,0.00,,,0.00,VWS V14.01,2013-01-01 21:09:00,
2013-01-01 16:14:00,28.5,24.6,30.16,NW,314,0.0,1.2,85,0.00,,,0.00,VWS V14.01,2013-01-01 21:14:00,
2013-01-01 16:15:00,27.2,23.9,30.17,NW,315,0.0,1.2,87,0.00,,CLR,0.00,VWS V14.01,2013-01-01 21:15:00,
2013-01-01 16:19:00,28.4,24.8,30.16,NW,316,0.0,1.2,86,0.00,,,0.00,VWS V14.01,2013-01-01 21:19:00,
2013-01-01 16:24:00,28.4,24.8,30.16,NW,316,0.0,1.2,86,0.00,,,0.00,VWS V14.01,2013-01-01 21:24:00,
2013-01-01 16:29:00,28.2,24.6,30.16,WSW,253,0.0,0.0,86,0.00,,,0.00,VWS V14.01,2013-01-01 21:29:00,
2013-01-01 16:30:00,26.9,23.8,30.18,SW,233,0.0,1.2,88,0.00,,CLR,0.00,VWS V14.01,2013-01-01 21:30:00,
2013-01-01 16:34:00,28.0,24.4,30.17,WSW,250,0.0,0.0,86,0.00,,,0.00,VWS V14.01,2013-01-01 21:34:00,
2013-01-01 16:39:00,27.8,24.2,30.17,NNE,27,0.0,0.0,86,0.00,,,0.00,VWS V14.01,2013-01-01 21:39:00,
2013-01-01 16:44:00,27.7,24.1,30.17,NNW,347,0.0,0.0,86,0.00,,,0.00,VWS V14.01,2013-01-01 21:44:00,
2013-01-01 16:45:00,26.6,23.8,30.17,WSW,238,0.0,0.0,89,0.00,,CLR,0.00,VWS V14.01,2013-01-01 21:45:00,
2013-01-01 16:50:00,27.7,24.1,30.17,NNW,347,0.0,0.0,86,0.00,,,0.00,VWS V14.01,2013-01-01 21:50:00,
2013-01-01 16:55:00,27.6,24.2,30.17,West,271,0.0,0.0,87,0.00,,,0.00,VWS V14.01,2013-01-01 21:55:00,
2013-01-01 17:00:00,27.5,24.1,30.17,NNE,12,0.0,0.0,87,0.00,,,0.00,VWS V14.01,2013-01-01 22:00:00,
2013-01-01 17:05:00,27.3,23.7,30.17,NW,315,0.0,1.2,86,0.00,,,0.00,VWS V14.01,2013-01-01 22:05:00,
2013-01-01 17:10:00,27.2,23.9,30.17,NW,314,0.0,1.2,87,0.00,,,0.00,VWS V14.01,2013-01-01 22:10:00,
2013-01-01 17:15:00,27.1,24.0,30.17,NW,315,0.0,0.0,88,0.00,,,0.00,VWS V14.01,2013-01-01 22:15:00,
2013-01-01 17:20:00,27.0,23.6,30.17,NW,314,0.0,0.0,87,0.00,,,0.00,VWS V14.01,2013-01-01 22:20:00,
2013-01-01 17:25:00,26.9,23.8,30.18,WSW,255,0.0,1.2,88,0.00,,,0.00,VWS V14.01,2013-01-01 22:25:00,
2013-01-01 17:30:00,26.7,23.6,30.18,SW,235,0.0,0.0,88,0.00,,,0.00,VWS V14.01,2013-01-01 22:30:00,
2013-01-01 17:35:00,26.7,23.9,30.17,WSW,238,0.0,0.0,89,0.00,,,0.00,VWS V14.01,2013-01-01 22:35:00,
2013-01-01 17:40:00,26.6,23.8,30.17,WSW,238,0.0,0.0,89,0.00,,,0.00,VWS V14.01,2013-01-01 22:40:00,
2013-01-01 17:45:00,26.6,23.8,30.17,WSW,238,0.0,0.0,89,0.00,,,0.00,VWS V14.01,2013-01-01 22:45:00,
2013-01-01 17:49:00,26.4,23.3,30.17,WSW,248,0.0,1.2,88,0.00,,,0.00,VWS V14.01,2013-01-01 22:49:00,
2013-01-01 17:54:00,26.3,23.5,30.17,WSW,248,0.0,1.2,89,0.00,,,0.00,VWS V14.01,2013-01-01 22:54:00,
2013-01-01 17:59:00,26.3,23.5,30.18,WSW,248,0.0,1.2,89,0.00,,,0.00,VWS V14.01,2013-01-01 22:59:00,
2013-01-01 18:00:00,25.4,22.9,30.18,SSW,210,0.0,2.5,90,0.00,,CLR,0.00,VWS V14.01,2013-01-01 23:00:00,
2013-01-01 18:04:00,26.2,23.4,30.18,NW,314,0.0,1.2,89,0.00,,,0.00,VWS V14.01,2013-01-01 23:04:00,
2013-01-01 18:09:00,26.1,23.3,30.18,NW,314,0.0,1.2,89,0.00,,,0.00,VWS V14.01,2013-01-01 23:09:00,
2013-01-01 18:14:00,26.1,23.6,30.17,NW,315,0.0,0.0,90,0.00,,,0.00,VWS V14.01,2013-01-01 23:14:00,
2013-01-01 18:15:00,24.9,22.4,30.18,NW,316,0.0,2.5,90,0.00,,CLR,0.00,VWS V14.01,2013-01-01 23:15:00,
2013-01-01 18:19:00,26.0,23.5,30.18,WSW,245,0.0,1.2,90,0.00,,,0.00,VWS V14.01,2013-01-01 23:19:00,
2013-01-01 18:24:00,25.9,23.4,30.18,WSW,256,0.0,1.2,90,0.00,,,0.00,VWS V14.01,2013-01-01 23:24:00,
2013-01-01 18:29:00,25.9,23.4,30.18,WSW,256,0.0,1.2,90,0.00,,,0.00,VWS V14.01,2013-01-01 23:29:00,
2013-01-01 18:30:00,24.4,21.6,30.19,West,267,0.0,5.0,89,0.00,,CLR,0.00,VWS V14.01,2013-01-01 23:30:00,
2013-01-01 18:34:00,25.7,23.2,30.18,WSW,256,0.0,1.2,90,0.00,,OVC075,0.00,VWS V14.01,2013-01-01 23:34:00,
2013-01-01 18:39:00,25.7,23.2,30.18,WSW,256,0.0,1.2,90,0.00,,OVC075,0.00,VWS V14.01,2013-01-01 23:39:00,
2013-01-01 18:44:00,25.6,23.1,30.18,West,264,0.0,1.2,90,0.00,,OVC075,0.00,VWS V14.01,2013-01-01 23:44:00,
2013-01-01 18:45:00,24.0,21.2,30.20,West,278,0.0,5.0,89,0.00,,CLR,0.00,VWS V14.01,2013-01-01 23:45:00,
2013-01-01 18:49:00,25.5,23.0,30.18,WSW,255,1.2,2.5,90,0.00,,OVC075,0.00,VWS V14.01,2013-01-01 23:49:00,
2013-01-01 18:54:00,25.4,22.9,30.18,West,270,0.0,2.5,90,0.00,,OVC075,0.00,VWS V14.01,2013-01-01 23:54:00,
2013-01-01 18:59:00,25.3,22.8,30.17,South,191,0.0,2.5,90,0.00,,OVC075,0.00,VWS V14.01,2013-01-01 23:59:00,
2013-01-01 19:00:00,23.8,21.0,30.20,WSW,251,0.0,1.2,89,0.00,,CLR,0.00,VWS V14.01,2013-01-02 00:00:00,
2013-01-01 19:04:00,25.1,22.3,30.18,West,272,0.0,2.5,89,0.00,,OVC075,0.00,VWS V14.01,2013-01-02 00:04:00,
2013-01-01 19:09:00,24.9,22.4,30.18,NW,316,0.0,2.5,90,0.00,,OVC080,0.00,VWS V14.01,2013-01-02 00:09:00,
2013-01-01 19:14:00,24.8,22.0,30.19,NW,316,0.0,0.0,89,0.00,,OVC080,0.00,VWS V14.01,2013-01-02 00:14:00,
2013-01-01 19:15:00,23.4,20.6,30.21,West,277,0.0,3.8,89,0.00,,CLR,0.00,VWS V14.01,2013-01-02 00:15:00,
2013-01-01 19:19:00,24.7,22.2,30.19,WSW,238,0.0,1.2,90,0.00,,OVC080,0.00,VWS V14.01,2013-01-02 00:19:00,
2013-01-01 19:24:00,24.4,21.6,30.19,WSW,251,1.2,5.0,89,0.00,,OVC080,0.00,VWS V14.01,2013-01-02 00:24:00,
2013-01-01 19:29:00,24.3,21.5,30.20,West,271,0.0,2.5,89,0.00,,OVC080,0.00,VWS V14.01,2013-01-02 00:29:00,
2013-01-01 19:30:00,23.2,20.2,30.21,West,278,0.0,5.0,88,0.00,,CLR,0.00,VWS V14.01,2013-01-02 00:30:00,
2013-01-01 19:34:00,24.1,21.3,30.20,WSW,250,1.2,5.0,89,0.00,,OVC080,0.00,VWS V14.01,2013-01-02 00:34:00,
2013-01-01 19:39:00,24.0,21.2,30.20,West,278,0.0,5.0,89,0.00,,OVC080,0.00,VWS V14.01,2013-01-02 00:39:00,
2013-01-01 19:44:00,23.9,21.1,30.20,West,278,0.0,0.0,89,0.00,,OVC080,0.00,VWS V14.01,2013-01-02 00:44:00,
2013-01-01 19:45:00,22.8,19.8,30.21,West,260,0.0,7.5,88,0.00,,CLR,0.00,VWS V14.01,2013-01-02 00:45:00,
2013-01-01 19:49:00,23.8,21.0,30.20,West,273,0.0,1.2,89,0.00,,OVC080,0.00,VWS V14.01,2013-01-02 00:49:00,
2013-01-01 19:54:00,23.8,21.0,30.20,WSW,240,0.0,1.2,89,0.00,,OVC080,0.00,VWS V14.01,2013-01-02 00:54:00,
2013-01-01 19:59:00,23.6,20.8,30.20,WSW,257,0.0,1.2,89,0.00,,OVC080,0.00,VWS V14.01,2013-01-02 00:59:00,
2013-01-01 20:00:00,22.6,19.6,30.22,NNW,335,1.2,2.5,88,0.00,,CLR,0.00,VWS V14.01,2013-01-02 01:00:00,
2013-01-01 20:04:00,23.6,20.8,30.20,WSW,242,1.2,2.5,89,0.00,,OVC080,0.00,VWS V14.01,2013-01-02 01:04:00,
2013-01-01 20:09:00,23.5,20.7,30.21,WSW,245,3.8,3.8,89,0.00,,OVC080,0.00,VWS V14.01,2013-01-02 01:09:00,
2013-01-01 20:14:00,23.4,20.6,30.22,West,267,0.0,1.2,89,0.00,,OVC080,0.00,VWS V14.01,2013-01-02 01:14:00,
2013-01-01 20:15:00,22.5,19.5,30.23,WNW,295,0.0,3.8,88,0.00,,CLR,0.00,VWS V14.01,2013-01-02 01:15:00,
2013-01-01 20:19:00,23.3,20.5,30.21,West,271,0.0,2.5,89,0.00,,OVC080,0.00,VWS V14.01,2013-01-02 01:19:00,
2013-01-01 20:24:00,23.2,20.2,30.21,West,277,2.5,5.0,88,0.00,,OVC080,0.00,VWS V14.01,2013-01-02 01:24:00,
2013-01-01 20:29:00,23.1,20.1,30.21,West,278,1.2,7.5,88,0.00,,OVC080,0.00,VWS V14.01,2013-01-02 01:29:00,
2013-01-01 20:30:00,21.6,18.6,30.22,WNW,287,0.0,2.5,88,0.00,,-RA,0.00,VWS V14.01,2013-01-02 01:30:00,
2013-01-01 20:34:00,22.9,19.9,30.21,SW,218,0.0,7.5,88,0.00,,OVC085,0.00,VWS V14.01,2013-01-02 01:34:00,
2013-01-01 20:35:00,22.3,19.3,30.23,WSW,255,0.0,0.0,88,0.00,,OVC085,0.00,VWS V14.01,2013-01-02 01:35:00,
2013-01-01 20:36:00,22.3,19.3,30.23,West,266,1.2,1.2,88,0.00,,OVC085,0.00,VWS V14.01,2013-01-02 01:36:00,
2013-01-01 20:37:00,22.3,19.3,30.23,West,260,1.2,3.8,88,0.00,,OVC085,0.00,VWS V14.01,2013-01-02 01:37:00,
2013-01-01 20:38:00,22.3,19.3,30.23,West,278,0.0,3.8,88,0.00,,OVC085,0.00,VWS V14.01,2013-01-02 01:38:00,
2013-01-01 20:39:00,22.8,19.8,30.21,West,260,0.0,7.5,88,0.00,,OVC085,0.00,VWS V14.01,2013-01-02 01:39:00,
2013-01-01 20:44:00,22.7,19.7,30.22,WNW,295,1.2,1.2,88,0.00,,OVC085,0.00,VWS V14.01,2013-01-02 01:44:00,
2013-01-01 20:45:00,22.2,19.2,30.23,SW,232,2.5,3.8,88,0.00,,CLR,0.00,VWS V14.01,2013-01-02 01:45:00,
2013-01-01 20:49:00,22.7,19.7,30.22,SW,236,1.2,1.2,88,0.00,,OVC085,0.00,VWS V14.01,2013-01-02 01:49:00,
2013-01-01 20:54:00,22.6,19.6,30.22,NNW,338,0.0,2.5,88,0.00,,OVC085,0.00,VWS V14.01,2013-01-02 01:54:00,
2013-01-01 20:59:00,22.5,19.5,30.22,WSW,239,0.0,1.2,88,0.00,,OVC085,0.00,VWS V14.01,2013-01-02 01:59:00,
2013-01-01 21:00:00,22.0,19.3,30.23,West,273,0.0,3.8,89,0.00,,CLR,0.00,VWS V14.01,2013-01-02 02:00:00,
2013-01-01 21:04:00,22.5,19.5,30.22,WNW,288,0.0,3.8,88,0.00,,OVC085,0.00,VWS V14.01,2013-01-02 02:04:00,
2013-01-01 21:09:00,22.5,19.5,30.23,WNW,295,0.0,3.8,88,0.00,,OVC085,0.00,VWS V14.01,2013-01-02 02:09:00,
2013-01-01 21:14:00,22.4,19.4,30.22,WSW,253,0.0,1.2,88,0.00,,OVC085,0.00,VWS V14.01,2013-01-02 02:14:00,
2013-01-01 21:15:00,21.9,19.2,30.22,West,266,1.2,2.5,89,0.00,,CLR,0.00,VWS V14.01,2013-01-02 02:15:00,
2013-01-01 21:19:00,22.5,19.8,30.23,WSW,246,2.5,3.8,89,0.00,,OVC085,0.00,VWS V14.01,2013-01-02 02:19:00,
2013-01-01 21:28:00,22.3,19.3,30.22,WNW,285,0.0,1.0,88,0.00,,,0.00,Wunderground v.1.15,2013-01-02 02:28:00,
2013-01-01 21:30:00,21.6,18.6,30.22,WNW,287,0.0,2.5,88,0.00,,CLR,0.00,VWS V14.01,2013-01-02 02:30:00,
2013-01-01 21:33:00,22.3,19.3,30.23,West,279,1.2,3.8,88,0.00,,OVC085,0.00,VWS V14.01,2013-01-02 02:33:00,
2013-01-01 21:38:00,22.2,19.2,30.23,WNW,288,0.0,3.8,88,0.00,,OVC085,0.00,VWS V14.01,2013-01-02 02:38:00,
2013-01-01 21:43:00,22.1,19.1,30.22,NW,307,0.0,3.8,88,0.00,,OVC085,0.00,VWS V14.01,2013-01-02 02:43:00,
2013-01-01 21:45:00,21.2,18.5,30.22,WNW,287,1.2,2.5,89,0.00,,CLR,0.00,VWS V14.01,2013-01-02 02:45:00,
2013-01-01 21:48:00,22.1,19.1,30.22,West,278,0.0,3.8,88,0.00,,OVC085,0.00,VWS V14.01,2013-01-02 02:48:00,
2013-01-01 21:53:00,22.1,19.1,30.23,West,269,1.2,3.8,88,0.00,,OVC085,0.00,VWS V14.01,2013-01-02 02:53:00,
2013-01-01 21:58:00,22.0,19.3,30.23,NW,313,0.0,1.2,89,0.00,,OVC085,0.00,VWS V14.01,2013-01-02 02:58:00,
2013-01-01 22:00:00,20.9,18.2,30.23,NNW,347,1.2,2.5,89,0.00,,CLR,0.00,VWS V14.01,2013-01-02 03:00:00,
2013-01-01 22:03:00,22.0,19.0,30.23,NW,310,1.2,2.5,88,0.00,,OVC085,0.00,VWS V14.01,2013-01-02 03:03:00,
2013-01-01 22:08:00,21.9,18.9,30.22,NNW,333,0.0,2.5,88,0.00,,OVC085,0.00,VWS V14.01,2013-01-02 03:08:00,
2013-01-01 22:13:00,21.9,19.2,30.22,NW,305,1.2,2.5,89,0.00,,OVC085,0.00,VWS V14.01,2013-01-02 03:13:00,
2013-01-01 22:15:00,20.4,17.7,30.23,NNW,347,1.2,6.2,89,0.00,,CLR,0.00,VWS V14.01,2013-01-02 03:15:00,
2013-01-01 22:18:00,21.8,19.1,30.22,NNW,335,0.0,2.5,89,0.00,,OVC085,0.00,VWS V14.01,2013-01-02 03:18:00,
2013-01-01 22:23:00,21.7,19.0,30.21,WNW,287,0.0,2.5,89,0.00,,OVC085,0.00,VWS V14.01,2013-01-02 03:23:00,
2013-01-01 22:28:00,21.6,18.9,30.21,WSW,256,2.5,2.5,89,0.00,,OVC085,0.00,VWS V14.01,2013-01-02 03:28:00,
2013-01-01 22:30:00,20.1,17.4,30.23,NW,309,0.0,1.2,89,0.00,,CLR,0.00,VWS V14.01,2013-01-02 03:30:00,
2013-01-01 22:33:00,21.4,18.7,30.22,West,280,1.2,2.5,89,0.00,,OVC065,0.00,VWS V14.01,2013-01-02 03:33:00,
2013-01-01 22:38:00,21.2,18.5,30.22,West,270,0.0,2.5,89,0.00,,OVC065,0.00,VWS V14.01,2013-01-02 03:38:00,
2013-01-01 22:43:00,21.1,18.4,30.22,NW,318,1.2,1.2,89,0.00,,OVC065,0.00,VWS V14.01,2013-01-02 03:43:00,
2013-01-01 22:45:00,19.8,17.1,30.23,NW,314,1.2,2.5,89,0.00,,CLR,0.00,VWS V14.01,2013-01-02 03:45:00,
2013-01-01 22:48:00,21.0,18.3,30.22,WNW,298,1.2,1.2,89,0.00,,OVC065,0.00,VWS V14.01,2013-01-02 03:48:00,
2013-01-01 22:53:00,20.9,18.2,30.23,West,262,1.2,2.5,89,0.00,,OVC065,0.00,VWS V14.01,2013-01-02 03:53:00,
2013-01-01 22:58:00,20.8,18.1,30.23,West,280,0.0,1.2,89,0.00,,OVC065,0.00,VWS V14.01,2013-01-02 03:58:00,
2013-01-01 23:00:00,19.6,17.1,30.24,West,271,0.0,2.5,90,0.00,,CLR,0.00,VWS V14.01,2013-01-02 04:00:00,
2013-01-01 23:03:00,20.6,17.9,30.23,West,271,0.0,1.2,89,0.00,,OVC065,0.00,VWS V14.01,2013-01-02 04:03:00,
2013-01-01 23:04:00,19.5,17.0,30.24,NNW,329,0.0,1.2,90,0.00,,BKN080,0.00,VWS V14.01,2013-01-02 04:04:00,
2013-01-01 23:05:00,19.5,17.0,30.24,NNW,329,1.2,1.2,90,0.00,,BKN080,0.00,VWS V14.01,2013-01-02 04:05:00,
2013-01-01 23:06:00,19.5,17.0,30.24,NNW,329,0.0,1.2,90,0.00,,BKN080,0.00,VWS V14.01,2013-01-02 04:06:00,
2013-01-01 23:07:00,19.4,17.0,30.24,NW,321,0.0,1.2,90,0.00,,BKN080,0.00,VWS V14.01,2013-01-02 04:07:00,
2013-01-01 23:08:00,20.5,17.8,30.23,West,281,0.0,6.2,89,0.00,,OVC065,0.00,VWS V14.01,2013-01-02 04:08:00,
2013-01-01 23:09:00,19.4,17.0,30.24,NW,321,1.2,1.2,90,0.00,,BKN080,0.00,VWS V14.01,2013-01-02 04:09:00,
2013-01-01 23:13:00,20.3,17.6,30.23,WNW,290,0.0,1.2,89,0.00,,OVC065,0.00,VWS V14.01,2013-01-02 04:13:00,
2013-01-01 23:15:00,19.2,16.8,30.24,WSW,245,0.0,2.5,90,0.00,,CLR,0.00,VWS V14.01,2013-01-02 04:15:00,
2013-01-01 23:18:00,20.2,17.5,30.23,WNW,288,0.0,1.2,89,0.00,,OVC065,0.00,VWS V14.01,2013-01-02 04:18:00,
2013-01-01 23:23:00,20.1,17.4,30.23,WNW,289,0.0,1.2,89,0.00,,OVC065,0.00,VWS V14.01,2013-01-02 04:23:00,
2013-01-01 23:28:00,20.1,17.4,30.23,NW,304,0.0,1.2,89,0.00,,OVC065,0.00,VWS V14.01,2013-01-02 04:28:00,
2013-01-01 23:30:00,18.9,16.5,30.24,WSW,256,0.0,1.2,90,0.00,,CLR,0.00,VWS V14.01,2013-01-02 04:30:00,
2013-01-01 23:33:00,19.9,17.2,30.24,NW,324,1.2,2.5,89,0.00,,BKN080,0.00,VWS V14.01,2013-01-02 04:33:00,
2013-01-01 23:38:00,19.9,17.2,30.23,WNW,285,0.0,2.5,89,0.00,,BKN080,0.00,VWS V14.01,2013-01-02 04:38:00,
2013-01-01 23:43:00,19.8,17.1,30.24,NW,310,1.2,2.5,89,0.00,,BKN080,0.00,VWS V14.01,2013-01-02 04:43:00,
2013-01-01 23:45:00,18.4,15.7,30.24,WNW,285,0.0,1.2,89,0.00,,CLR,0.00,VWS V14.01,2013-01-02 04:45:00,
2013-01-01 23:48:00,19.7,17.2,30.23,NW,314,0.0,2.5,90,0.00,,BKN080,0.00,VWS V14.01,2013-01-02 04:48:00,
2013-01-01 23:53:00,19.6,17.1,30.24,West,271,0.0,2.5,90,0.00,,BKN080,0.00,VWS V14.01,2013-01-02 04:53:00,
2013-01-01 23:58:00,19.5,17.0,30.24,West,271,0.0,0.0,90,0.00,,BKN080,0.00,VWS V14.01,2013-01-02 04:58:00,